sensor_id;sensor_type;location;lat;lon;timestamp;pressure;altitude;pressure_sealevel;temperature;humidity
71764;BME280;59602;52.142;5.408;2023-05-21T00:01:04;102071.91;;;16.44;61.25
71764;BME280;59602;52.142;5.408;2023-05-21T00:03:31;102070.34;;;16.43;61.32
71764;BME280;59602;52.142;5.408;2023-05-21T00:06:00;102065.25;;;16.41;61.56
71764;BME280;59602;52.142;5.408;2023-05-21T00:08:29;102064.44;;;16.40;61.47
71764;BME280;59602;52.142;5.408;2023-05-21T00:10:55;102059.75;;;16.41;61.09
71764;BME280;59602;52.142;5.408;2023-05-21T00:13:22;102060.13;;;16.36;61.56
71764;BME280;59602;52.142;5.408;2023-05-21T00:15:49;102066.78;;;16.31;61.65
71764;BME280;59602;52.142;5.408;2023-05-21T00:18:15;102066.00;;;16.31;61.47
71764;BME280;59602;52.142;5.408;2023-05-21T00:20:42;102068.34;;;16.29;61.76
71764;BME280;59602;52.142;5.408;2023-05-21T00:23:08;102060.50;;;16.31;61.88
71764;BME280;59602;52.142;5.408;2023-05-21T00:25:35;102060.50;;;16.31;61.78
71764;BME280;59602;52.142;5.408;2023-05-21T00:28:02;102051.50;;;16.30;61.69
71764;BME280;59602;52.142;5.408;2023-05-21T00:30:29;102049.91;;;16.29;62.13
71764;BME280;59602;52.142;5.408;2023-05-21T00:32:55;102044.44;;;16.26;62.16
71764;BME280;59602;52.142;5.408;2023-05-21T00:35:24;102045.22;;;16.26;61.95
71764;BME280;59602;52.142;5.408;2023-05-21T00:37:50;102038.53;;;16.27;61.97
71764;BME280;59602;52.142;5.408;2023-05-21T00:40:17;102050.31;;;16.31;61.87
71764;BME280;59602;52.142;5.408;2023-05-21T00:42:44;102045.59;;;16.32;61.85
71764;BME280;59602;52.142;5.408;2023-05-21T00:45:13;102037.38;;;16.28;62.12
71764;BME280;59602;52.142;5.408;2023-05-21T00:47:42;102039.31;;;16.21;62.46
71764;BME280;59602;52.142;5.408;2023-05-21T00:50:10;102037.38;;;16.21;62.74
71764;BME280;59602;52.142;5.408;2023-05-21T00:52:37;102035.41;;;16.22;62.44
71764;BME280;59602;52.142;5.408;2023-05-21T00:55:08;102033.44;;;16.15;62.75
71764;BME280;59602;52.142;5.408;2023-05-21T00:57:36;102033.81;;;16.10;63.13
71764;BME280;59602;52.142;5.408;2023-05-21T01:00:03;102036.94;;;16.12;63.08
71764;BME280;59602;52.142;5.408;2023-05-21T01:02:34;102033.41;;;16.11;63.29
71764;BME280;59602;52.142;5.408;2023-05-21T01:05:03;102037.75;;;16.12;63.12
71764;BME280;59602;52.142;5.408;2023-05-21T01:07:33;102030.25;;;16.09;63.18
71764;BME280;59602;52.142;5.408;2023-05-21T01:10:03;102022.84;;;16.10;63.34
71764;BME280;59602;52.142;5.408;2023-05-21T01:12:31;102025.97;;;16.08;63.54
71764;BME280;59602;52.142;5.408;2023-05-21T01:15:00;102023.97;;;16.05;63.49
71764;BME280;59602;52.142;5.408;2023-05-21T01:17:28;102025.53;;;16.03;63.54
71764;BME280;59602;52.142;5.408;2023-05-21T01:19:57;102022.03;;;16.02;63.78
71764;BME280;59602;52.142;5.408;2023-05-21T01:22:24;102014.97;;;16.05;63.48
71764;BME280;59602;52.142;5.408;2023-05-21T01:24:52;102011.81;;;16.03;63.48
71764;BME280;59602;52.142;5.408;2023-05-21T01:27:20;102017.31;;;16.03;63.76
71764;BME280;59602;52.142;5.408;2023-05-21T01:29:48;102011.44;;;16.01;64.31
71764;BME280;59602;52.142;5.408;2023-05-21T01:32:16;102014.97;;;16.01;63.99
71764;BME280;59602;52.142;5.408;2023-05-21T01:34:59;102013.41;;;16.04;63.49
71764;BME280;59602;52.142;5.408;2023-05-21T01:37:29;102015.75;;;16.05;63.82
71764;BME280;59602;52.142;5.408;2023-05-21T01:40:02;102016.16;;;16.04;63.79
71764;BME280;59602;52.142;5.408;2023-05-21T01:42:32;102011.84;;;15.99;64.16
71764;BME280;59602;52.142;5.408;2023-05-21T01:45:02;102014.94;;;15.94;63.93
71764;BME280;59602;52.142;5.408;2023-05-21T01:47:31;102013.75;;;15.91;64.56
71764;BME280;59602;52.142;5.408;2023-05-21T01:49:59;102014.53;;;15.88;64.13
71764;BME280;59602;52.142;5.408;2023-05-21T01:52:26;102014.53;;;15.85;64.46
71764;BME280;59602;52.142;5.408;2023-05-21T01:54:55;102013.75;;;15.84;64.42
71764;BME280;59602;52.142;5.408;2023-05-21T01:57:22;102006.69;;;15.83;64.90
71764;BME280;59602;52.142;5.408;2023-05-21T01:59:49;102009.03;;;15.81;64.70
71764;BME280;59602;52.142;5.408;2023-05-21T02:02:18;102005.09;;;15.82;64.66
71764;BME280;59602;52.142;5.408;2023-05-21T02:04:45;102003.94;;;15.80;64.91
71764;BME280;59602;52.142;5.408;2023-05-21T02:07:12;102012.97;;;15.84;64.81
71764;BME280;59602;52.142;5.408;2023-05-21T02:09:40;102008.63;;;15.83;65.00
71764;BME280;59602;52.142;5.408;2023-05-21T02:12:07;102003.97;;;15.83;64.93
71764;BME280;59602;52.142;5.408;2023-05-21T02:14:33;102004.34;;;15.82;65.27
71764;BME280;59602;52.142;5.408;2023-05-21T02:17:00;102004.31;;;15.74;65.38
71764;BME280;59602;52.142;5.408;2023-05-21T02:19:27;102003.53;;;15.74;65.93
71764;BME280;59602;52.142;5.408;2023-05-21T02:21:54;102001.91;;;15.66;66.12
71764;BME280;59602;52.142;5.408;2023-05-21T02:24:21;102010.13;;;15.69;65.84
71764;BME280;59602;52.142;5.408;2023-05-21T02:26:49;101991.72;;;15.66;66.01
71764;BME280;59602;52.142;5.408;2023-05-21T02:29:17;101991.34;;;15.68;66.03
71764;BME280;59602;52.142;5.408;2023-05-21T02:31:44;101999.94;;;15.66;66.13
71764;BME280;59602;52.142;5.408;2023-05-21T02:34:11;102000.72;;;15.63;66.17
71764;BME280;59602;52.142;5.408;2023-05-21T02:36:37;102004.22;;;15.60;66.50
71764;BME280;59602;52.142;5.408;2023-05-21T02:39:06;102006.97;;;15.64;66.26
71764;BME280;59602;52.142;5.408;2023-05-21T02:41:33;102004.22;;;15.60;66.41
71764;BME280;59602;52.142;5.408;2023-05-21T02:44:00;102000.69;;;15.60;66.80
71764;BME280;59602;52.142;5.408;2023-05-21T02:46:26;102002.25;;;15.57;67.19
71764;BME280;59602;52.142;5.408;2023-05-21T02:48:53;102006.56;;;15.62;67.46
71764;BME280;59602;52.142;5.408;2023-05-21T02:51:19;101999.91;;;15.59;66.92
71764;BME280;59602;52.142;5.408;2023-05-21T02:53:47;102000.69;;;15.60;67.29
71764;BME280;59602;52.142;5.408;2023-05-21T02:56:13;102001.06;;;15.58;67.33
71764;BME280;59602;52.142;5.408;2023-05-21T02:58:40;102005.03;;;15.61;67.28
71764;BME280;59602;52.142;5.408;2023-05-21T03:01:07;102003.44;;;15.60;67.25
71764;BME280;59602;52.142;5.408;2023-05-21T03:03:33;102000.66;;;15.56;67.32
71764;BME280;59602;52.142;5.408;2023-05-21T03:06:00;101997.94;;;15.52;67.93
71764;BME280;59602;52.142;5.408;2023-05-21T03:08:27;102002.63;;;15.55;68.02
71764;BME280;59602;52.142;5.408;2023-05-21T03:10:53;102000.28;;;15.54;68.02
71764;BME280;59602;52.142;5.408;2023-05-21T03:13:20;101999.88;;;15.52;67.95
71764;BME280;59602;52.142;5.408;2023-05-21T03:15:47;101996.34;;;15.51;68.60
71764;BME280;59602;52.142;5.408;2023-05-21T03:18:14;101996.34;;;15.51;68.58
71764;BME280;59602;52.142;5.408;2023-05-21T03:20:41;101998.31;;;15.47;68.64
71764;BME280;59602;52.142;5.408;2023-05-21T03:23:15;101991.59;;;15.41;69.03
71764;BME280;59602;52.142;5.408;2023-05-21T03:25:42;101991.59;;;15.41;68.91
71764;BME280;59602;52.142;5.408;2023-05-21T03:28:09;101983.00;;;15.43;69.23
71764;BME280;59602;52.142;5.408;2023-05-21T03:30:35;101988.50;;;15.43;69.23
71764;BME280;59602;52.142;5.408;2023-05-21T03:33:03;101984.16;;;15.42;69.43
71764;BME280;59602;52.142;5.408;2023-05-21T03:35:31;101982.22;;;15.46;69.71
71764;BME280;59602;52.142;5.408;2023-05-21T03:37:58;101980.63;;;15.45;69.52
71764;BME280;59602;52.142;5.408;2023-05-21T03:40:25;101973.59;;;15.44;70.05
71764;BME280;59602;52.142;5.408;2023-05-21T03:42:52;101974.38;;;15.41;69.96
71764;BME280;59602;52.142;5.408;2023-05-21T03:45:18;101973.97;;;15.39;69.81
71764;BME280;59602;52.142;5.408;2023-05-21T03:47:45;101976.72;;;15.39;70.11
71764;BME280;59602;52.142;5.408;2023-05-21T03:50:11;101971.22;;;15.35;70.52
71764;BME280;59602;52.142;5.408;2023-05-21T03:52:38;101975.13;;;15.34;70.99
71764;BME280;59602;52.142;5.408;2023-05-21T03:55:05;101973.94;;;15.35;70.76
71764;BME280;59602;52.142;5.408;2023-05-21T03:57:32;101976.72;;;15.42;71.42
71764;BME280;59602;52.142;5.408;2023-05-21T03:59:58;101972.81;;;15.43;71.53
71764;BME280;59602;52.142;5.408;2023-05-21T04:02:25;101978.31;;;15.43;71.25
71764;BME280;59602;52.142;5.408;2023-05-21T04:04:52;101979.09;;;15.44;71.41
71764;BME280;59602;52.142;5.408;2023-05-21T04:07:21;101973.56;;;15.40;71.45
71764;BME280;59602;52.142;5.408;2023-05-21T04:09:47;101974.72;;;15.35;70.94
71764;BME280;59602;52.142;5.408;2023-05-21T04:12:15;101975.13;;;15.34;71.59
71764;BME280;59602;52.142;5.408;2023-05-21T04:14:45;101966.50;;;15.35;71.62
71764;BME280;59602;52.142;5.408;2023-05-21T04:17:12;101973.56;;;15.33;71.25
71764;BME280;59602;52.142;5.408;2023-05-21T04:19:39;101967.28;;;15.32;71.38
71764;BME280;59602;52.142;5.408;2023-05-21T04:22:06;101973.16;;;15.31;72.13
71764;BME280;59602;52.142;5.408;2023-05-21T04:24:32;101979.03;;;15.29;72.05
71764;BME280;59602;52.142;5.408;2023-05-21T04:26:59;101972.34;;;15.27;72.07
71764;BME280;59602;52.142;5.408;2023-05-21T04:29:27;101975.09;;;15.30;71.67
71764;BME280;59602;52.142;5.408;2023-05-21T04:31:55;101973.94;;;15.31;72.19
71764;BME280;59602;52.142;5.408;2023-05-21T04:34:21;101975.91;;;15.34;72.02
71764;BME280;59602;52.142;5.408;2023-05-21T04:36:48;101986.50;;;15.36;72.15
71764;BME280;59602;52.142;5.408;2023-05-21T04:39:17;101989.25;;;15.36;72.61
71764;BME280;59602;52.142;5.408;2023-05-21T04:41:43;101979.06;;;15.36;72.04
71764;BME280;59602;52.142;5.408;2023-05-21T04:44:10;101980.63;;;15.34;72.05
71764;BME280;59602;52.142;5.408;2023-05-21T04:46:40;101977.47;;;15.32;72.33
71764;BME280;59602;52.142;5.408;2023-05-21T04:49:08;101983.31;;;15.30;72.64
71764;BME280;59602;52.142;5.408;2023-05-21T04:51:35;101983.31;;;15.30;72.50
71764;BME280;59602;52.142;5.408;2023-05-21T04:54:03;101986.84;;;15.31;72.55
71764;BME280;59602;52.142;5.408;2023-05-21T04:56:29;101986.84;;;15.31;72.38
71764;BME280;59602;52.142;5.408;2023-05-21T04:58:57;101979.81;;;15.30;72.46
71764;BME280;59602;52.142;5.408;2023-05-21T05:01:24;101989.22;;;15.32;72.47
71764;BME280;59602;52.142;5.408;2023-05-21T05:03:52;101981.41;;;15.34;73.17
71764;BME280;59602;52.142;5.408;2023-05-21T05:06:19;101993.53;;;15.37;72.51
71764;BME280;59602;52.142;5.408;2023-05-21T05:08:46;101985.69;;;15.35;72.88
71764;BME280;59602;52.142;5.408;2023-05-21T05:11:14;101989.25;;;15.36;72.83
71764;BME280;59602;52.142;5.408;2023-05-21T05:13:41;101993.91;;;15.35;72.84
71764;BME280;59602;52.142;5.408;2023-05-21T05:16:08;101995.88;;;15.35;72.79
71764;BME280;59602;52.142;5.408;2023-05-21T05:18:34;101989.59;;;15.31;72.91
71764;BME280;59602;52.142;5.408;2023-05-21T05:21:01;101984.09;;;15.31;73.15
71764;BME280;59602;52.142;5.408;2023-05-21T05:23:28;101984.91;;;15.35;73.40
71764;BME280;59602;52.142;5.408;2023-05-21T05:25:55;101985.28;;;15.33;73.20
71764;BME280;59602;52.142;5.408;2023-05-21T05:28:22;101979.06;;;15.36;73.22
71764;BME280;59602;52.142;5.408;2023-05-21T05:30:49;101982.94;;;15.32;73.57
71764;BME280;59602;52.142;5.408;2023-05-21T05:33:16;101989.59;;;15.31;73.62
71764;BME280;59602;52.142;5.408;2023-05-21T05:35:43;101985.31;;;15.37;73.31
71764;BME280;59602;52.142;5.408;2023-05-21T05:38:14;101993.56;;;15.44;73.31
71764;BME280;59602;52.142;5.408;2023-05-21T05:40:42;101981.81;;;15.44;73.70
71764;BME280;59602;52.142;5.408;2023-05-21T05:43:09;101986.50;;;15.40;73.85
71764;BME280;59602;52.142;5.408;2023-05-21T05:45:36;101979.50;;;15.46;73.92
71764;BME280;59602;52.142;5.408;2023-05-21T05:48:03;101984.19;;;15.49;73.76
71764;BME280;59602;52.142;5.408;2023-05-21T05:50:30;101984.59;;;15.51;73.63
71764;BME280;59602;52.142;5.408;2023-05-21T05:52:57;101989.69;;;15.52;73.31
71764;BME280;59602;52.142;5.408;2023-05-21T05:55:23;101984.59;;;15.47;73.41
71764;BME280;59602;52.142;5.408;2023-05-21T05:57:55;101990.06;;;15.47;73.36
71764;BME280;59602;52.142;5.408;2023-05-21T06:00:21;101983.03;;;15.53;73.43
71764;BME280;59602;52.142;5.408;2023-05-21T06:02:48;101985.75;;;15.46;73.39
71764;BME280;59602;52.142;5.408;2023-05-21T06:05:15;101974.41;;;15.48;73.39
71764;BME280;59602;52.142;5.408;2023-05-21T06:07:42;101978.31;;;15.47;73.43
71764;BME280;59602;52.142;5.408;2023-05-21T06:10:09;101968.94;;;15.51;73.51
71764;BME280;59602;52.142;5.408;2023-05-21T06:12:35;101972.50;;;15.59;73.51
71764;BME280;59602;52.142;5.408;2023-05-21T06:15:03;101965.06;;;15.63;73.10
71764;BME280;59602;52.142;5.408;2023-05-21T06:17:29;101968.22;;;15.69;72.94
71764;BME280;59602;52.142;5.408;2023-05-21T06:19:57;101976.50;;;15.80;72.80
71764;BME280;59602;52.142;5.408;2023-05-21T06:22:23;101971.44;;;15.89;72.92
71764;BME280;59602;52.142;5.408;2023-05-21T06:24:51;101971.06;;;15.90;72.74
71764;BME280;59602;52.142;5.408;2023-05-21T06:27:18;101968.34;;;16.01;72.26
71764;BME280;59602;52.142;5.408;2023-05-21T06:29:44;101973.03;;;16.18;71.95
71764;BME280;59602;52.142;5.408;2023-05-21T06:32:11;101976.59;;;16.23;70.59
71764;BME280;59602;52.142;5.408;2023-05-21T06:34:37;101966.38;;;16.16;71.34
71764;BME280;59602;52.142;5.408;2023-05-21T06:37:04;101959.34;;;16.22;70.74
71764;BME280;59602;52.142;5.408;2023-05-21T06:39:33;101967.19;;;16.27;70.98
71764;BME280;59602;52.142;5.408;2023-05-21T06:42:18;101972.28;;;16.29;70.79
71764;BME280;59602;52.142;5.408;2023-05-21T06:44:45;101960.13;;;16.33;70.77
71764;BME280;59602;52.142;5.408;2023-05-21T06:47:12;101973.06;;;16.33;71.06
71764;BME280;59602;52.142;5.408;2023-05-21T06:49:38;101966.78;;;16.29;70.89
71764;BME280;59602;52.142;5.408;2023-05-21T06:52:05;101958.97;;;16.42;71.04
71764;BME280;59602;52.142;5.408;2023-05-21T06:54:32;101955.84;;;16.50;70.62
71764;BME280;59602;52.142;5.408;2023-05-21T06:57:00;101958.97;;;16.59;70.55
71764;BME280;59602;52.142;5.408;2023-05-21T06:59:27;101958.16;;;16.63;70.27
71764;BME280;59602;52.142;5.408;2023-05-21T07:01:55;101965.63;;;16.62;70.30
71764;BME280;59602;52.142;5.408;2023-05-21T07:04:22;101956.59;;;16.47;70.34
71764;BME280;59602;52.142;5.408;2023-05-21T07:06:48;101959.75;;;16.49;70.74
71764;BME280;59602;52.142;5.408;2023-05-21T07:09:15;101954.25;;;16.56;70.52
71764;BME280;59602;52.142;5.408;2023-05-21T07:11:43;101957.78;;;16.53;70.41
71764;BME280;59602;52.142;5.408;2023-05-21T07:14:10;101947.56;;;16.54;70.50
71764;BME280;59602;52.142;5.408;2023-05-21T07:16:36;101959.75;;;16.60;70.51
71764;BME280;59602;52.142;5.408;2023-05-21T07:19:04;101959.72;;;16.67;70.51
71764;BME280;59602;52.142;5.408;2023-05-21T07:21:30;101960.13;;;16.69;70.33
71764;BME280;59602;52.142;5.408;2023-05-21T07:23:57;101959.31;;;16.76;70.14
71764;BME280;59602;52.142;5.408;2023-05-21T07:26:24;101963.66;;;16.88;69.47
71764;BME280;59602;52.142;5.408;2023-05-21T07:28:51;101958.94;;;16.95;70.49
71764;BME280;59602;52.142;5.408;2023-05-21T07:31:18;101966.34;;;17.09;70.38
71764;BME280;59602;52.142;5.408;2023-05-21T07:33:45;101967.13;;;17.20;69.39
71764;BME280;59602;52.142;5.408;2023-05-21T07:36:14;101968.28;;;17.27;68.91
71764;BME280;59602;52.142;5.408;2023-05-21T07:38:40;101964.34;;;17.35;69.02
71764;BME280;59602;52.142;5.408;2023-05-21T07:41:07;101964.69;;;17.40;68.63
71764;BME280;59602;52.142;5.408;2023-05-21T07:43:34;101963.88;;;17.43;68.23
71764;BME280;59602;52.142;5.408;2023-05-21T07:46:01;101959.91;;;17.52;67.54
71764;BME280;59602;52.142;5.408;2023-05-21T07:48:28;101958.28;;;17.61;67.58
71764;BME280;59602;52.142;5.408;2023-05-21T07:50:56;101963.00;;;17.64;67.13
71764;BME280;59602;52.142;5.408;2023-05-21T07:53:23;101959.53;;;17.50;66.99
71764;BME280;59602;52.142;5.408;2023-05-21T07:55:50;101954.03;;;17.53;67.70
71764;BME280;59602;52.142;5.408;2023-05-21T07:58:17;101959.06;;;17.66;67.24
71764;BME280;59602;52.142;5.408;2023-05-21T08:00:46;101942.16;;;17.67;66.78
71764;BME280;59602;52.142;5.408;2023-05-21T08:03:14;101939.78;;;17.73;66.94
71764;BME280;59602;52.142;5.408;2023-05-21T08:05:43;101942.09;;;17.81;67.13
71764;BME280;59602;52.142;5.408;2023-05-21T08:08:16;101938.13;;;17.93;66.53
71764;BME280;59602;52.142;5.408;2023-05-21T08:10:43;101941.19;;;18.02;67.16
71764;BME280;59602;52.142;5.408;2023-05-21T08:13:11;101938.75;;;18.15;67.27
71764;BME280;59602;52.142;5.408;2023-05-21T08:15:38;101942.28;;;18.16;67.90
71764;BME280;59602;52.142;5.408;2023-05-21T08:18:05;101932.50;;;18.11;66.52
71764;BME280;59602;52.142;5.408;2023-05-21T08:20:32;101932.88;;;18.13;66.70
71764;BME280;59602;52.142;5.408;2023-05-21T08:22:59;101936.72;;;18.23;67.06
71764;BME280;59602;52.142;5.408;2023-05-21T08:25:26;101933.53;;;18.28;66.46
71764;BME280;59602;52.142;5.408;2023-05-21T08:27:53;101935.50;;;18.28;66.45
71764;BME280;59602;52.142;5.408;2023-05-21T08:30:19;101936.66;;;18.30;65.75
71764;BME280;59602;52.142;5.408;2023-05-21T08:32:47;101944.16;;;18.26;65.98
71764;BME280;59602;52.142;5.408;2023-05-21T08:35:14;101943.84;;;18.17;66.29
71764;BME280;59602;52.142;5.408;2023-05-21T08:37:41;101940.69;;;18.18;66.33
71764;BME280;59602;52.142;5.408;2023-05-21T08:40:08;101936.72;;;18.23;65.32
71764;BME280;59602;52.142;5.408;2023-05-21T08:42:47;101925.69;;;18.27;66.65
71764;BME280;59602;52.142;5.408;2023-05-21T08:45:19;101931.16;;;18.30;65.61
71764;BME280;59602;52.142;5.408;2023-05-21T08:47:46;101938.25;;;18.28;65.24
71764;BME280;59602;52.142;5.408;2023-05-21T08:50:15;101942.91;;;18.34;65.68
71764;BME280;59602;52.142;5.408;2023-05-21T08:52:43;101938.09;;;18.45;65.77
71764;BME280;59602;52.142;5.408;2023-05-21T08:55:10;101938.84;;;18.50;65.24
71764;BME280;59602;52.142;5.408;2023-05-21T08:57:42;101943.06;;;18.61;65.92
71764;BME280;59602;52.142;5.408;2023-05-21T09:00:10;101942.19;;;18.72;65.37
71764;BME280;59602;52.142;5.408;2023-05-21T09:02:37;101944.13;;;18.75;64.66
71764;BME280;59602;52.142;5.408;2023-05-21T09:05:08;101946.06;;;18.81;64.39
71764;BME280;59602;52.142;5.408;2023-05-21T09:07:42;101939.75;;;18.81;64.02
71764;BME280;59602;52.142;5.408;2023-05-21T09:10:11;101949.63;;;18.75;63.95
71764;BME280;59602;52.142;5.408;2023-05-21T09:12:38;101955.16;;;18.78;64.15
71764;BME280;59602;52.142;5.408;2023-05-21T09:15:06;101955.41;;;18.91;64.08
71764;BME280;59602;52.142;5.408;2023-05-21T09:17:34;101938.44;;;18.96;63.59
71764;BME280;59602;52.142;5.408;2023-05-21T09:20:06;101939.50;;;19.06;63.93
71764;BME280;59602;52.142;5.408;2023-05-21T09:22:41;101935.50;;;19.11;62.72
71764;BME280;59602;52.142;5.408;2023-05-21T09:25:11;101942.25;;;19.06;63.38
71764;BME280;59602;52.142;5.408;2023-05-21T09:27:38;101928.84;;;19.08;62.94
71764;BME280;59602;52.142;5.408;2023-05-21T09:30:09;101944.03;;;19.23;63.20
71764;BME280;59602;52.142;5.408;2023-05-21T09:32:37;101934.47;;;19.32;62.54
71764;BME280;59602;52.142;5.408;2023-05-21T09:35:07;101937.91;;;19.39;62.78
71764;BME280;59602;52.142;5.408;2023-05-21T09:37:42;101932.25;;;19.50;62.15
71764;BME280;59602;52.142;5.408;2023-05-21T09:40:11;101930.34;;;19.47;61.27
71764;BME280;59602;52.142;5.408;2023-05-21T09:42:38;101921.63;;;19.48;62.55
71764;BME280;59602;52.142;5.408;2023-05-21T09:45:08;101925.41;;;19.62;62.73
71764;BME280;59602;52.142;5.408;2023-05-21T09:47:43;101925.47;;;19.58;62.85
71764;BME280;59602;52.142;5.408;2023-05-21T09:50:12;101927.38;;;19.61;62.40
71764;BME280;59602;52.142;5.408;2023-05-21T09:52:38;101923.72;;;19.72;64.71
71764;BME280;59602;52.142;5.408;2023-05-21T09:55:27;101910.97;;;19.81;61.69
71764;BME280;59602;52.142;5.408;2023-05-21T09:57:54;101899.75;;;19.92;62.55
71764;BME280;59602;52.142;5.408;2023-05-21T10:02:52;101895.81;;;20.17;60.44
71764;BME280;59602;52.142;5.408;2023-05-21T10:05:19;101896.94;;;20.19;60.38
71764;BME280;59602;52.142;5.408;2023-05-21T10:07:51;101894.06;;;20.26;60.55
71764;BME280;59602;52.142;5.408;2023-05-21T10:10:20;101885.88;;;20.43;61.38
71764;BME280;59602;52.142;5.408;2023-05-21T10:12:54;101888.16;;;20.48;60.07
71764;BME280;59602;52.142;5.408;2023-05-21T10:15:23;101883.06;;;20.46;60.34
71764;BME280;59602;52.142;5.408;2023-05-21T10:17:51;101886.19;;;20.48;59.50
71764;BME280;59602;52.142;5.408;2023-05-21T10:20:18;101887.22;;;20.35;59.53
71764;BME280;59602;52.142;5.408;2023-05-21T10:22:46;101887.59;;;20.37;59.87
71764;BME280;59602;52.142;5.408;2023-05-21T10:25:14;101894.25;;;20.39;60.34
71764;BME280;59602;52.142;5.408;2023-05-21T10:27:41;101880.69;;;20.45;60.20
71764;BME280;59602;52.142;5.408;2023-05-21T10:30:08;101869.66;;;20.45;59.58
71764;BME280;59602;52.142;5.408;2023-05-21T10:32:35;101874.63;;;20.53;59.33
71764;BME280;59602;52.142;5.408;2023-05-21T10:35:04;101871.69;;;20.64;59.02
71764;BME280;59602;52.142;5.408;2023-05-21T10:37:31;101879.16;;;20.67;59.02
71764;BME280;59602;52.142;5.408;2023-05-21T10:39:58;101874.88;;;20.83;58.93
71764;BME280;59602;52.142;5.408;2023-05-21T10:42:47;101872.06;;;21.06;58.94
71764;BME280;59602;52.142;5.408;2023-05-21T10:45:48;101865.78;;;21.22;57.49
71764;BME280;59602;52.142;5.408;2023-05-21T10:56:43;101872.00;;;21.46;56.67
71764;BME280;59602;52.142;5.408;2023-05-21T10:59:18;101867.00;;;21.58;57.10
71764;BME280;59602;52.142;5.408;2023-05-21T11:01:51;101863.41;;;21.77;56.09
71764;BME280;59602;52.142;5.408;2023-05-21T11:04:25;101864.16;;;21.77;56.37
71764;BME280;59602;52.142;5.408;2023-05-21T11:06:52;101866.75;;;21.85;55.66
71764;BME280;59602;52.142;5.408;2023-05-21T11:09:19;101860.63;;;21.93;56.08
71764;BME280;59602;52.142;5.408;2023-05-21T11:11:50;101863.13;;;21.88;55.47
71764;BME280;59602;52.142;5.408;2023-05-21T11:14:29;101869.28;;;21.79;55.34
71764;BME280;59602;52.142;5.408;2023-05-21T11:17:39;101855.31;;;21.99;56.08
71764;BME280;59602;52.142;5.408;2023-05-21T11:20:09;101858.63;;;22.10;55.13
71764;BME280;59602;52.142;5.408;2023-05-21T11:22:36;101862.50;;;22.29;56.80
71764;BME280;59602;52.142;5.408;2023-05-21T11:25:03;101860.56;;;22.43;55.46
71764;BME280;59602;52.142;5.408;2023-05-21T11:27:33;101853.78;;;22.44;54.55
71764;BME280;59602;52.142;5.408;2023-05-21T11:30:03;101838.19;;;22.50;55.29
71764;BME280;59602;52.142;5.408;2023-05-21T11:32:30;101840.75;;;22.57;54.42
71764;BME280;59602;52.142;5.408;2023-05-21T11:34:59;101850.22;;;22.59;54.00
71764;BME280;59602;52.142;5.408;2023-05-21T11:37:29;101834.88;;;22.55;54.05
71764;BME280;59602;52.142;5.408;2023-05-21T11:40:15;101840.13;;;22.66;53.46
71764;BME280;59602;52.142;5.408;2023-05-21T11:42:42;101840.72;;;22.73;54.09
71764;BME280;59602;52.142;5.408;2023-05-21T11:45:09;101825.75;;;22.71;53.41
71764;BME280;59602;52.142;5.408;2023-05-21T11:47:38;101829.59;;;22.61;54.82
71764;BME280;59602;52.142;5.408;2023-05-21T11:50:11;101821.53;;;22.79;53.32
71764;BME280;59602;52.142;5.408;2023-05-21T11:52:40;101826.22;;;22.95;53.68
71764;BME280;59602;52.142;5.408;2023-05-21T11:55:08;101819.88;;;22.82;53.24
71764;BME280;59602;52.142;5.408;2023-05-21T11:57:35;101816.44;;;22.77;53.16
71764;BME280;59602;52.142;5.408;2023-05-21T12:00:03;101823.31;;;22.86;53.81
71764;BME280;59602;52.142;5.408;2023-05-21T12:02:44;101818.78;;;22.92;53.89
71764;BME280;59602;52.142;5.408;2023-05-21T12:05:12;101817.56;;;22.93;53.09
71764;BME280;59602;52.142;5.408;2023-05-21T12:07:38;101807.13;;;22.84;54.48
71764;BME280;59602;52.142;5.408;2023-05-21T12:10:06;101808.25;;;22.87;55.17
71764;BME280;59602;52.142;5.408;2023-05-21T12:12:33;101803.34;;;22.78;53.41
71764;BME280;59602;52.142;5.408;2023-05-21T12:15:19;101818.56;;;22.99;53.31
71764;BME280;59602;52.142;5.408;2023-05-21T12:17:48;101817.38;;;23.00;53.14
71764;BME280;59602;52.142;5.408;2023-05-21T12:20:16;101805.63;;;23.09;53.61
71764;BME280;59602;52.142;5.408;2023-05-21T12:22:43;101798.63;;;23.17;52.47
71764;BME280;59602;52.142;5.408;2023-05-21T12:25:10;101800.28;;;23.14;53.46
71764;BME280;59602;52.142;5.408;2023-05-21T12:27:38;101803.19;;;23.24;53.13
71764;BME280;59602;52.142;5.408;2023-05-21T12:30:05;101793.84;;;23.30;54.02
71764;BME280;59602;52.142;5.408;2023-05-21T12:32:32;101792.31;;;23.29;52.10
71764;BME280;59602;52.142;5.408;2023-05-21T12:35:01;101798.63;;;23.17;52.99
71764;BME280;59602;52.142;5.408;2023-05-21T12:37:31;101792.31;;;23.16;53.16
71764;BME280;59602;52.142;5.408;2023-05-21T12:40:05;101790.53;;;23.23;53.09
71764;BME280;59602;52.142;5.408;2023-05-21T12:42:38;101788.97;;;23.21;53.23
71764;BME280;59602;52.142;5.408;2023-05-21T12:45:28;101797.84;;;23.04;53.04
71764;BME280;59602;52.142;5.408;2023-05-21T12:48:09;101788.19;;;22.95;53.71
71764;BME280;59602;52.142;5.408;2023-05-21T12:51:07;101790.19;;;23.08;53.65
71764;BME280;59602;52.142;5.408;2023-05-21T12:53:36;101785.66;;;23.27;54.01
71764;BME280;59602;52.142;5.408;2023-05-21T12:56:08;101774.19;;;23.37;55.21
71764;BME280;59602;52.142;5.408;2023-05-21T12:58:35;101779.53;;;23.32;53.30
71764;BME280;59602;52.142;5.408;2023-05-21T13:01:07;101790.31;;;23.30;52.66
71764;BME280;59602;52.142;5.408;2023-05-21T13:03:35;101784.53;;;23.11;53.48
71764;BME280;59602;52.142;5.408;2023-05-21T13:06:05;101791.66;;;23.25;53.33
71764;BME280;59602;52.142;5.408;2023-05-21T13:08:32;101791.06;;;23.30;54.29